Terminal Aerodrome Forecast
Issued by NWS Bismarck, ND

Home | Current Version | Previous Version | Text Only | Print | Product List | Glossary Off
Versions: 1 2 3 4 5 6 7 8 9 10 11 12 13 14 15 16 17 18 19 20

013
FTUS43 KBIS 161725
TAFISN
TAF
KISN 161725Z 1618/1718 36012KT 6SM -RA BKN012 OVC025
      TEMPO 1618/1620 4SM -RA BR SCT012 OVC025
     FM170200 30005KT P6SM VCSH BKN020
     FM170700 27004KT P6SM BKN040
     FM171200 21005KT P6SM SCT070=

USA.gov is the U.S. government's official web portal to all federal, state and local government web resources and services.